sensor_id;sensor_type;location;lat;lon;timestamp;P1;durP1;ratioP1;P2;durP2;ratioP2
9827;SDS011;4953;48.952;9.442;2022-09-09T03:58:04;3.10;;;2.00;;
9827;SDS011;4953;48.952;9.442;2022-09-09T04:00:31;2.90;;;2.13;;
9827;SDS011;4953;48.952;9.442;2022-09-09T04:02:58;8.43;;;2.43;;
9827;SDS011;4953;48.952;9.442;2022-09-09T04:05:25;3.50;;;2.50;;
9827;SDS011;4953;48.952;9.442;2022-09-09T04:07:52;4.73;;;2.20;;
9827;SDS011;4953;48.952;9.442;2022-09-09T04:10:19;2.80;;;1.90;;
9827;SDS011;4953;48.952;9.442;2022-09-09T04:12:46;2.70;;;2.30;;
9827;SDS011;4953;48.952;9.442;2022-09-09T04:15:15;5.43;;;2.13;;
9827;SDS011;4953;48.952;9.442;2022-09-09T04:17:43;4.73;;;2.57;;
9827;SDS011;4953;48.952;9.442;2022-09-09T04:20:10;4.67;;;2.40;;
9827;SDS011;4953;48.952;9.442;2022-09-09T04:22:37;6.03;;;2.40;;
9827;SDS011;4953;48.952;9.442;2022-09-09T04:25:05;3.93;;;2.33;;
9827;SDS011;4953;48.952;9.442;2022-09-09T04:27:32;3.30;;;2.37;;
9827;SDS011;4953;48.952;9.442;2022-09-09T04:29:59;4.53;;;2.67;;
9827;SDS011;4953;48.952;9.442;2022-09-09T04:32:27;5.37;;;2.60;;
9827;SDS011;4953;48.952;9.442;2022-09-09T04:34:54;4.17;;;2.63;;
9827;SDS011;4953;48.952;9.442;2022-09-09T04:37:20;3.37;;;2.20;;
9827;SDS011;4953;48.952;9.442;2022-09-09T04:39:47;4.20;;;2.27;;
9827;SDS011;4953;48.952;9.442;2022-09-09T04:42:14;3.97;;;2.50;;
9827;SDS011;4953;48.952;9.442;2022-09-09T04:44:41;4.57;;;2.23;;
9827;SDS011;4953;48.952;9.442;2022-09-09T04:47:08;7.73;;;2.10;;
9827;SDS011;4953;48.952;9.442;2022-09-09T04:49:36;3.80;;;2.20;;
9827;SDS011;4953;48.952;9.442;2022-09-09T04:52:04;2.30;;;1.87;;
9827;SDS011;4953;48.952;9.442;2022-09-09T04:54:31;2.43;;;2.10;;
9827;SDS011;4953;48.952;9.442;2022-09-09T04:56:57;3.47;;;2.30;;
9827;SDS011;4953;48.952;9.442;2022-09-09T04:59:24;12.10;;;2.87;;
9827;SDS011;4953;48.952;9.442;2022-09-09T05:01:51;3.90;;;2.30;;
9827;SDS011;4953;48.952;9.442;2022-09-09T05:04:20;4.03;;;2.40;;
9827;SDS011;4953;48.952;9.442;2022-09-09T05:06:48;7.27;;;2.90;;
9827;SDS011;4953;48.952;9.442;2022-09-09T05:09:15;4.53;;;2.63;;
9827;SDS011;4953;48.952;9.442;2022-09-09T05:11:42;4.00;;;2.63;;
9827;SDS011;4953;48.952;9.442;2022-09-09T05:14:09;3.37;;;3.07;;
9827;SDS011;4953;48.952;9.442;2022-09-09T05:16:37;3.57;;;2.67;;
9827;SDS011;4953;48.952;9.442;2022-09-09T05:19:04;5.90;;;2.80;;
9827;SDS011;4953;48.952;9.442;2022-09-09T05:21:33;2.60;;;2.20;;
9827;SDS011;4953;48.952;9.442;2022-09-09T05:24:01;4.37;;;2.60;;
9827;SDS011;4953;48.952;9.442;2022-09-09T05:26:28;8.17;;;2.60;;
9827;SDS011;4953;48.952;9.442;2022-09-09T05:28:56;5.17;;;2.53;;
9827;SDS011;4953;48.952;9.442;2022-09-09T05:31:24;4.00;;;2.97;;
9827;SDS011;4953;48.952;9.442;2022-09-09T05:33:53;3.83;;;2.60;;
9827;SDS011;4953;48.952;9.442;2022-09-09T05:36:20;5.50;;;3.20;;
9827;SDS011;4953;48.952;9.442;2022-09-09T05:38:48;4.73;;;2.63;;
9827;SDS011;4953;48.952;9.442;2022-09-09T05:41:17;5.20;;;2.67;;
9827;SDS011;4953;48.952;9.442;2022-09-09T05:43:45;3.47;;;2.57;;
9827;SDS011;4953;48.952;9.442;2022-09-09T05:46:14;3.50;;;2.47;;
9827;SDS011;4953;48.952;9.442;2022-09-09T05:48:43;5.00;;;2.60;;
9827;SDS011;4953;48.952;9.442;2022-09-09T05:51:12;5.60;;;2.83;;
9827;SDS011;4953;48.952;9.442;2022-09-09T05:53:40;3.43;;;2.67;;
9827;SDS011;4953;48.952;9.442;2022-09-09T05:56:08;7.47;;;3.07;;
9827;SDS011;4953;48.952;9.442;2022-09-09T05:58:40;6.53;;;3.17;;
9827;SDS011;4953;48.952;9.442;2022-09-09T06:01:09;4.70;;;3.00;;
9827;SDS011;4953;48.952;9.442;2022-09-09T06:03:37;3.80;;;3.40;;
9827;SDS011;4953;48.952;9.442;2022-09-09T06:06:06;4.23;;;3.40;;
9827;SDS011;4953;48.952;9.442;2022-09-09T06:08:34;7.83;;;3.00;;
9827;SDS011;4953;48.952;9.442;2022-09-09T06:11:03;8.43;;;3.40;;
9827;SDS011;4953;48.952;9.442;2022-09-09T06:13:31;5.07;;;3.23;;
9827;SDS011;4953;48.952;9.442;2022-09-09T06:16:00;4.20;;;3.27;;
9827;SDS011;4953;48.952;9.442;2022-09-09T06:18:27;9.10;;;3.60;;
9827;SDS011;4953;48.952;9.442;2022-09-09T06:20:55;5.43;;;3.43;;
9827;SDS011;4953;48.952;9.442;2022-09-09T06:23:22;3.60;;;2.80;;
9827;SDS011;4953;48.952;9.442;2022-09-09T06:25:50;3.60;;;2.80;;
9827;SDS011;4953;48.952;9.442;2022-09-09T06:28:17;6.00;;;3.23;;
9827;SDS011;4953;48.952;9.442;2022-09-09T06:30:44;5.60;;;3.30;;
9827;SDS011;4953;48.952;9.442;2022-09-09T06:33:13;4.80;;;2.97;;
9827;SDS011;4953;48.952;9.442;2022-09-09T06:35:40;8.57;;;3.53;;
9827;SDS011;4953;48.952;9.442;2022-09-09T06:38:07;4.83;;;3.00;;
9827;SDS011;4953;48.952;9.442;2022-09-09T06:40:33;5.87;;;3.47;;
9827;SDS011;4953;48.952;9.442;2022-09-09T06:43:01;4.97;;;3.00;;
9827;SDS011;4953;48.952;9.442;2022-09-09T06:45:28;4.40;;;3.17;;
9827;SDS011;4953;48.952;9.442;2022-09-09T06:47:55;7.13;;;2.83;;
9827;SDS011;4953;48.952;9.442;2022-09-09T06:50:23;5.33;;;2.80;;
9827;SDS011;4953;48.952;9.442;2022-09-09T06:52:50;6.77;;;3.00;;
9827;SDS011;4953;48.952;9.442;2022-09-09T06:55:17;5.30;;;3.00;;
9827;SDS011;4953;48.952;9.442;2022-09-09T06:57:45;6.23;;;3.70;;
9827;SDS011;4953;48.952;9.442;2022-09-09T07:00:13;9.30;;;3.33;;
9827;SDS011;4953;48.952;9.442;2022-09-09T07:02:40;4.60;;;3.07;;
9827;SDS011;4953;48.952;9.442;2022-09-09T07:05:07;5.70;;;3.03;;
9827;SDS011;4953;48.952;9.442;2022-09-09T07:07:36;7.07;;;3.17;;
9827;SDS011;4953;48.952;9.442;2022-09-09T07:10:03;5.47;;;2.83;;
9827;SDS011;4953;48.952;9.442;2022-09-09T07:12:30;7.87;;;3.03;;
9827;SDS011;4953;48.952;9.442;2022-09-09T07:14:57;5.50;;;3.13;;
9827;SDS011;4953;48.952;9.442;2022-09-09T07:17:24;3.53;;;2.90;;
9827;SDS011;4953;48.952;9.442;2022-09-09T07:19:51;4.93;;;3.10;;
9827;SDS011;4953;48.952;9.442;2022-09-09T07:22:17;7.40;;;3.27;;
9827;SDS011;4953;48.952;9.442;2022-09-09T07:24:46;5.33;;;2.97;;
9827;SDS011;4953;48.952;9.442;2022-09-09T07:27:14;6.73;;;2.60;;
9827;SDS011;4953;48.952;9.442;2022-09-09T07:29:40;6.50;;;2.37;;
9827;SDS011;4953;48.952;9.442;2022-09-09T07:32:08;5.20;;;2.43;;
9827;SDS011;4953;48.952;9.442;2022-09-09T07:34:34;5.73;;;2.00;;
9827;SDS011;4953;48.952;9.442;2022-09-09T07:37:01;4.37;;;2.03;;
9827;SDS011;4953;48.952;9.442;2022-09-09T07:39:28;7.03;;;1.80;;
9827;SDS011;4953;48.952;9.442;2022-09-09T07:41:56;4.40;;;2.37;;
9827;SDS011;4953;48.952;9.442;2022-09-09T07:44:24;3.23;;;2.30;;
9827;SDS011;4953;48.952;9.442;2022-09-09T07:46:51;2.63;;;2.20;;
9827;SDS011;4953;48.952;9.442;2022-09-09T07:49:18;3.73;;;1.97;;
9827;SDS011;4953;48.952;9.442;2022-09-09T07:51:46;7.40;;;2.17;;
9827;SDS011;4953;48.952;9.442;2022-09-09T07:54:15;3.50;;;2.50;;
9827;SDS011;4953;48.952;9.442;2022-09-09T07:56:45;6.27;;;1.80;;
9827;SDS011;4953;48.952;9.442;2022-09-09T07:59:14;6.90;;;1.80;;
9827;SDS011;4953;48.952;9.442;2022-09-09T08:01:41;5.10;;;1.73;;
9827;SDS011;4953;48.952;9.442;2022-09-09T08:04:10;7.90;;;2.40;;
9827;SDS011;4953;48.952;9.442;2022-09-09T08:06:41;6.07;;;2.07;;
9827;SDS011;4953;48.952;9.442;2022-09-09T08:09:10;4.20;;;1.50;;
9827;SDS011;4953;48.952;9.442;2022-09-09T08:11:37;4.50;;;1.90;;
9827;SDS011;4953;48.952;9.442;2022-09-09T08:14:05;8.10;;;1.77;;
9827;SDS011;4953;48.952;9.442;2022-09-09T08:16:35;3.10;;;1.70;;
9827;SDS011;4953;48.952;9.442;2022-09-09T08:19:03;1.90;;;1.33;;
9827;SDS011;4953;48.952;9.442;2022-09-09T08:21:32;4.33;;;1.70;;
9827;SDS011;4953;48.952;9.442;2022-09-09T08:24:02;5.17;;;2.00;;
9827;SDS011;4953;48.952;9.442;2022-09-09T08:26:30;2.73;;;1.53;;
9827;SDS011;4953;48.952;9.442;2022-09-09T08:29:00;5.60;;;1.70;;
9827;SDS011;4953;48.952;9.442;2022-09-09T08:31:30;3.93;;;1.60;;
9827;SDS011;4953;48.952;9.442;2022-09-09T08:33:59;3.57;;;1.47;;
9827;SDS011;4953;48.952;9.442;2022-09-09T08:36:28;3.30;;;1.77;;
9827;SDS011;4953;48.952;9.442;2022-09-09T08:38:58;4.23;;;1.60;;
9827;SDS011;4953;48.952;9.442;2022-09-09T08:41:33;5.00;;;1.50;;
9827;SDS011;4953;48.952;9.442;2022-09-09T08:44:13;4.40;;;1.90;;
9827;SDS011;4953;48.952;9.442;2022-09-09T08:46:47;3.00;;;1.20;;
9827;SDS011;4953;48.952;9.442;2022-09-09T08:49:29;8.70;;;1.80;;
9827;SDS011;4953;48.952;9.442;2022-09-09T08:52:12;3.70;;;1.60;;
9827;SDS011;4953;48.952;9.442;2022-09-09T08:54:43;3.50;;;1.50;;
9827;SDS011;4953;48.952;9.442;2022-09-09T08:59:40;4.83;;;1.53;;
9827;SDS011;4953;48.952;9.442;2022-09-09T09:02:13;5.57;;;1.67;;
9827;SDS011;4953;48.952;9.442;2022-09-09T09:04:51;6.23;;;1.83;;
9827;SDS011;4953;48.952;9.442;2022-09-09T09:07:31;3.43;;;1.40;;
9827;SDS011;4953;48.952;9.442;2022-09-09T09:10:10;5.00;;;1.90;;
9827;SDS011;4953;48.952;9.442;2022-09-09T09:12:42;5.33;;;1.50;;
9827;SDS011;4953;48.952;9.442;2022-09-09T09:15:14;4.60;;;1.73;;
9827;SDS011;4953;48.952;9.442;2022-09-09T09:17:46;2.80;;;1.50;;
9827;SDS011;4953;48.952;9.442;2022-09-09T09:20:17;3.10;;;1.13;;
9827;SDS011;4953;48.952;9.442;2022-09-09T09:23:00;3.37;;;1.80;;
9827;SDS011;4953;48.952;9.442;2022-09-09T09:25:31;4.73;;;1.50;;
9827;SDS011;4953;48.952;9.442;2022-09-09T09:28:01;4.37;;;1.40;;
9827;SDS011;4953;48.952;9.442;2022-09-09T09:30:42;2.70;;;1.30;;
9827;SDS011;4953;48.952;9.442;2022-09-09T09:33:14;5.00;;;1.50;;
9827;SDS011;4953;48.952;9.442;2022-09-09T09:35:49;4.50;;;1.17;;
9827;SDS011;4953;48.952;9.442;2022-09-09T09:38:17;4.63;;;1.80;;
9827;SDS011;4953;48.952;9.442;2022-09-09T09:40:50;3.03;;;1.37;;
9827;SDS011;4953;48.952;9.442;2022-09-09T09:43:24;4.07;;;1.33;;
9827;SDS011;4953;48.952;9.442;2022-09-09T09:45:52;3.63;;;1.17;;
9827;SDS011;4953;48.952;9.442;2022-09-09T09:48:20;4.23;;;1.50;;
9827;SDS011;4953;48.952;9.442;2022-09-09T09:50:48;3.20;;;1.40;;
9827;SDS011;4953;48.952;9.442;2022-09-09T09:53:20;8.00;;;2.00;;
9827;SDS011;4953;48.952;9.442;2022-09-09T09:55:52;3.70;;;1.43;;
9827;SDS011;4953;48.952;9.442;2022-09-09T09:58:22;6.17;;;1.73;;
9827;SDS011;4953;48.952;9.442;2022-09-09T10:00:51;6.53;;;1.97;;
9827;SDS011;4953;48.952;9.442;2022-09-09T10:03:21;7.00;;;1.70;;
9827;SDS011;4953;48.952;9.442;2022-09-09T10:05:52;4.47;;;1.63;;
9827;SDS011;4953;48.952;9.442;2022-09-09T10:08:21;4.40;;;1.80;;
9827;SDS011;4953;48.952;9.442;2022-09-09T10:11:02;4.60;;;1.50;;
9827;SDS011;4953;48.952;9.442;2022-09-09T10:13:41;3.13;;;1.70;;
9827;SDS011;4953;48.952;9.442;2022-09-09T10:16:25;3.50;;;1.50;;
9827;SDS011;4953;48.952;9.442;2022-09-09T10:19:02;3.60;;;1.43;;
9827;SDS011;4953;48.952;9.442;2022-09-09T10:21:37;4.20;;;1.50;;
9827;SDS011;4953;48.952;9.442;2022-09-09T10:27:15;2.00;;;1.20;;
9827;SDS011;4953;48.952;9.442;2022-09-09T10:29:51;2.17;;;1.00;;
9827;SDS011;4953;48.952;9.442;2022-09-09T10:32:38;4.40;;;1.50;;
9827;SDS011;4953;48.952;9.442;2022-09-09T10:35:20;3.10;;;1.23;;
9827;SDS011;4953;48.952;9.442;2022-09-09T10:38:15;2.93;;;1.30;;
9827;SDS011;4953;48.952;9.442;2022-09-09T10:40:49;1.93;;;1.10;;
9827;SDS011;4953;48.952;9.442;2022-09-09T10:43:32;4.03;;;1.30;;
9827;SDS011;4953;48.952;9.442;2022-09-09T10:46:10;2.87;;;1.00;;
9827;SDS011;4953;48.952;9.442;2022-09-09T10:48:49;3.57;;;1.00;;
9827;SDS011;4953;48.952;9.442;2022-09-09T10:51:33;2.20;;;0.97;;
9827;SDS011;4953;48.952;9.442;2022-09-09T10:54:12;2.90;;;1.10;;
9827;SDS011;4953;48.952;9.442;2022-09-09T10:56:51;4.27;;;1.30;;
9827;SDS011;4953;48.952;9.442;2022-09-09T10:59:22;2.93;;;1.10;;
9827;SDS011;4953;48.952;9.442;2022-09-09T11:01:53;1.97;;;1.00;;
9827;SDS011;4953;48.952;9.442;2022-09-09T11:04:25;2.83;;;1.00;;
9827;SDS011;4953;48.952;9.442;2022-09-09T11:06:57;3.37;;;0.90;;
9827;SDS011;4953;48.952;9.442;2022-09-09T11:09:32;2.37;;;1.33;;
9827;SDS011;4953;48.952;9.442;2022-09-09T11:12:04;3.03;;;1.17;;
9827;SDS011;4953;48.952;9.442;2022-09-09T11:14:36;1.90;;;0.90;;
9827;SDS011;4953;48.952;9.442;2022-09-09T11:17:09;3.30;;;1.20;;
9827;SDS011;4953;48.952;9.442;2022-09-09T11:19:38;3.97;;;1.23;;
9827;SDS011;4953;48.952;9.442;2022-09-09T11:22:08;2.00;;;1.00;;
9827;SDS011;4953;48.952;9.442;2022-09-09T11:24:45;7.27;;;1.50;;
9827;SDS011;4953;48.952;9.442;2022-09-09T11:27:17;2.67;;;1.20;;
9827;SDS011;4953;48.952;9.442;2022-09-09T11:30:03;5.60;;;1.40;;
9827;SDS011;4953;48.952;9.442;2022-09-09T11:32:54;2.63;;;1.00;;
9827;SDS011;4953;48.952;9.442;2022-09-09T11:35:42;4.43;;;1.50;;
9827;SDS011;4953;48.952;9.442;2022-09-09T11:38:24;6.40;;;1.30;;
9827;SDS011;4953;48.952;9.442;2022-09-09T11:40:58;6.67;;;1.70;;
9827;SDS011;4953;48.952;9.442;2022-09-09T11:43:31;5.53;;;2.00;;
9827;SDS011;4953;48.952;9.442;2022-09-09T11:46:03;13.00;;;3.83;;
9827;SDS011;4953;48.952;9.442;2022-09-09T11:48:34;11.60;;;2.83;;
9827;SDS011;4953;48.952;9.442;2022-09-09T11:51:04;10.47;;;3.03;;
9827;SDS011;4953;48.952;9.442;2022-09-09T11:53:33;10.90;;;2.60;;
9827;SDS011;4953;48.952;9.442;2022-09-09T11:56:10;8.90;;;2.20;;
9827;SDS011;4953;48.952;9.442;2022-09-09T11:58:40;9.03;;;2.50;;
9827;SDS011;4953;48.952;9.442;2022-09-09T12:01:13;7.80;;;2.40;;
9827;SDS011;4953;48.952;9.442;2022-09-09T12:04:02;6.63;;;2.20;;
9827;SDS011;4953;48.952;9.442;2022-09-09T12:06:41;4.93;;;1.90;;
9827;SDS011;4953;48.952;9.442;2022-09-09T12:09:13;9.63;;;1.93;;
9827;SDS011;4953;48.952;9.442;2022-09-09T12:11:49;5.67;;;1.77;;
9827;SDS011;4953;48.952;9.442;2022-09-09T12:14:20;6.33;;;2.63;;
9827;SDS011;4953;48.952;9.442;2022-09-09T12:16:48;11.63;;;2.47;;
9827;SDS011;4953;48.952;9.442;2022-09-09T12:19:22;3.57;;;1.90;;
9827;SDS011;4953;48.952;9.442;2022-09-09T12:21:51;6.53;;;1.70;;
9827;SDS011;4953;48.952;9.442;2022-09-09T12:24:27;9.17;;;2.80;;
9827;SDS011;4953;48.952;9.442;2022-09-09T12:27:01;7.10;;;2.07;;
9827;SDS011;4953;48.952;9.442;2022-09-09T12:29:36;6.63;;;2.77;;
9827;SDS011;4953;48.952;9.442;2022-09-09T12:32:11;8.47;;;2.30;;
9827;SDS011;4953;48.952;9.442;2022-09-09T12:34:42;4.40;;;2.47;;
9827;SDS011;4953;48.952;9.442;2022-09-09T12:37:16;7.40;;;1.87;;
9827;SDS011;4953;48.952;9.442;2022-09-09T12:39:49;3.43;;;1.80;;
9827;SDS011;4953;48.952;9.442;2022-09-09T12:42:22;7.70;;;1.83;;
9827;SDS011;4953;48.952;9.442;2022-09-09T12:44:50;6.20;;;2.00;;
9827;SDS011;4953;48.952;9.442;2022-09-09T12:47:18;6.37;;;1.83;;
9827;SDS011;4953;48.952;9.442;2022-09-09T12:49:51;5.27;;;1.60;;
9827;SDS011;4953;48.952;9.442;2022-09-09T12:52:23;5.57;;;1.60;;
9827;SDS011;4953;48.952;9.442;2022-09-09T12:54:55;6.10;;;1.60;;
9827;SDS011;4953;48.952;9.442;2022-09-09T12:57:24;2.30;;;1.37;;
9827;SDS011;4953;48.952;9.442;2022-09-09T13:00:03;2.70;;;1.20;;
9827;SDS011;4953;48.952;9.442;2022-09-09T13:02:31;2.87;;;0.90;;
9827;SDS011;4953;48.952;9.442;2022-09-09T13:05:05;3.53;;;1.20;;
9827;SDS011;4953;48.952;9.442;2022-09-09T13:07:39;4.20;;;1.10;;
9827;SDS011;4953;48.952;9.442;2022-09-09T13:10:10;6.30;;;1.10;;
9827;SDS011;4953;48.952;9.442;2022-09-09T13:12:39;2.47;;;0.97;;
9827;SDS011;4953;48.952;9.442;2022-09-09T13:15:18;2.87;;;1.00;;
9827;SDS011;4953;48.952;9.442;2022-09-09T13:17:51;2.77;;;0.90;;
9827;SDS011;4953;48.952;9.442;2022-09-09T13:20:20;4.27;;;1.30;;
9827;SDS011;4953;48.952;9.442;2022-09-09T13:22:48;1.70;;;0.90;;
9827;SDS011;4953;48.952;9.442;2022-09-09T13:25:18;2.70;;;0.90;;
9827;SDS011;4953;48.952;9.442;2022-09-09T13:27:57;1.03;;;0.77;;
9827;SDS011;4953;48.952;9.442;2022-09-09T13:30:28;2.93;;;1.10;;
9827;SDS011;4953;48.952;9.442;2022-09-09T13:33:01;2.00;;;0.93;;
9827;SDS011;4953;48.952;9.442;2022-09-09T13:35:30;4.10;;;0.97;;
9827;SDS011;4953;48.952;9.442;2022-09-09T13:37:59;1.13;;;0.80;;
9827;SDS011;4953;48.952;9.442;2022-09-09T13:40:33;2.70;;;1.10;;
9827;SDS011;4953;48.952;9.442;2022-09-09T13:43:03;1.90;;;0.80;;
9827;SDS011;4953;48.952;9.442;2022-09-09T13:45:30;1.63;;;0.93;;
9827;SDS011;4953;48.952;9.442;2022-09-09T13:47:59;2.93;;;1.00;;
9827;SDS011;4953;48.952;9.442;2022-09-09T13:50:36;2.87;;;0.90;;
9827;SDS011;4953;48.952;9.442;2022-09-09T13:53:02;1.47;;;0.70;;
9827;SDS011;4953;48.952;9.442;2022-09-09T13:55:30;1.93;;;1.17;;
9827;SDS011;4953;48.952;9.442;2022-09-09T13:57:58;2.33;;;1.10;;
9827;SDS011;4953;48.952;9.442;2022-09-09T14:00:30;2.40;;;1.07;;
9827;SDS011;4953;48.952;9.442;2022-09-09T14:02:58;2.43;;;0.90;;
9827;SDS011;4953;48.952;9.442;2022-09-09T14:05:27;2.93;;;1.10;;
9827;SDS011;4953;48.952;9.442;2022-09-09T14:07:57;1.13;;;0.83;;
9827;SDS011;4953;48.952;9.442;2022-09-09T14:10:25;3.50;;;1.00;;
9827;SDS011;4953;48.952;9.442;2022-09-09T14:12:52;1.93;;;0.80;;
9827;SDS011;4953;48.952;9.442;2022-09-09T14:15:19;2.50;;;1.00;;
9827;SDS011;4953;48.952;9.442;2022-09-09T14:17:51;1.93;;;0.80;;
9827;SDS011;4953;48.952;9.442;2022-09-09T14:20:18;7.43;;;1.20;;
9827;SDS011;4953;48.952;9.442;2022-09-09T14:22:44;5.30;;;1.27;;
9827;SDS011;4953;48.952;9.442;2022-09-09T14:25:11;2.20;;;0.73;;
9827;SDS011;4953;48.952;9.442;2022-09-09T14:27:39;1.57;;;0.90;;
9827;SDS011;4953;48.952;9.442;2022-09-09T14:30:07;2.13;;;1.10;;
9827;SDS011;4953;48.952;9.442;2022-09-09T14:32:35;1.90;;;0.90;;
9827;SDS011;4953;48.952;9.442;2022-09-09T14:35:05;2.40;;;1.07;;
9827;SDS011;4953;48.952;9.442;2022-09-09T14:37:33;3.27;;;1.03;;
9827;SDS011;4953;48.952;9.442;2022-09-09T14:39:59;3.60;;;1.10;;
9827;SDS011;4953;48.952;9.442;2022-09-09T14:42:26;1.77;;;1.10;;
9827;SDS011;4953;48.952;9.442;2022-09-09T14:44:55;3.13;;;1.10;;
9827;SDS011;4953;48.952;9.442;2022-09-09T14:47:22;4.20;;;0.90;;
9827;SDS011;4953;48.952;9.442;2022-09-09T14:49:48;2.40;;;1.23;;
9827;SDS011;4953;48.952;9.442;2022-09-09T14:52:19;2.50;;;1.00;;
9827;SDS011;4953;48.952;9.442;2022-09-09T14:54:46;2.63;;;0.93;;
9827;SDS011;4953;48.952;9.442;2022-09-09T14:57:14;1.57;;;0.97;;
9827;SDS011;4953;48.952;9.442;2022-09-09T14:59:41;3.50;;;1.00;;
9827;SDS011;4953;48.952;9.442;2022-09-09T15:02:08;3.87;;;1.10;;
9827;SDS011;4953;48.952;9.442;2022-09-09T15:04:35;3.87;;;1.10;;
9827;SDS011;4953;48.952;9.442;2022-09-09T15:07:02;2.93;;;0.80;;
9827;SDS011;4953;48.952;9.442;2022-09-09T15:09:30;2.20;;;1.00;;
9827;SDS011;4953;48.952;9.442;2022-09-09T15:11:56;3.83;;;0.97;;
9827;SDS011;4953;48.952;9.442;2022-09-09T15:14:23;3.90;;;1.13;;
9827;SDS011;4953;48.952;9.442;2022-09-09T15:16:51;3.50;;;0.80;;
9827;SDS011;4953;48.952;9.442;2022-09-09T15:19:18;1.87;;;0.93;;
9827;SDS011;4953;48.952;9.442;2022-09-09T15:21:45;3.17;;;1.17;;
9827;SDS011;4953;48.952;9.442;2022-09-09T15:24:12;2.20;;;0.93;;
9827;SDS011;4953;48.952;9.442;2022-09-09T15:26:40;1.93;;;0.83;;
9827;SDS011;4953;48.952;9.442;2022-09-09T15:29:07;3.70;;;1.10;;
9827;SDS011;4953;48.952;9.442;2022-09-09T15:31:35;2.90;;;1.00;;
9827;SDS011;4953;48.952;9.442;2022-09-09T15:34:02;4.20;;;1.30;;
9827;SDS011;4953;48.952;9.442;2022-09-09T15:36:31;2.53;;;1.00;;
9827;SDS011;4953;48.952;9.442;2022-09-09T15:39:00;1.73;;;1.03;;
9827;SDS011;4953;48.952;9.442;2022-09-09T15:41:28;2.30;;;0.90;;
9827;SDS011;4953;48.952;9.442;2022-09-09T15:43:57;7.53;;;1.17;;
9827;SDS011;4953;48.952;9.442;2022-09-09T15:46:26;1.73;;;0.90;;
9827;SDS011;4953;48.952;9.442;2022-09-09T15:48:56;3.00;;;0.90;;
9827;SDS011;4953;48.952;9.442;2022-09-09T15:51:24;3.77;;;1.17;;
9827;SDS011;4953;48.952;9.442;2022-09-09T15:53:56;1.60;;;0.90;;
9827;SDS011;4953;48.952;9.442;2022-09-09T15:56:24;4.50;;;0.80;;
9827;SDS011;4953;48.952;9.442;2022-09-09T15:58:52;4.40;;;0.90;;
9827;SDS011;4953;48.952;9.442;2022-09-09T16:01:20;4.03;;;1.00;;
9827;SDS011;4953;48.952;9.442;2022-09-09T16:03:47;2.20;;;1.10;;
9827;SDS011;4953;48.952;9.442;2022-09-09T16:06:15;1.27;;;0.80;;
9827;SDS011;4953;48.952;9.442;2022-09-09T16:08:44;1.87;;;1.17;;
9827;SDS011;4953;48.952;9.442;2022-09-09T16:11:12;1.80;;;1.00;;
9827;SDS011;4953;48.952;9.442;2022-09-09T16:13:41;2.50;;;1.00;;
9827;SDS011;4953;48.952;9.442;2022-09-09T16:16:09;2.07;;;1.37;;
9827;SDS011;4953;48.952;9.442;2022-09-09T16:18:40;1.63;;;0.90;;
9827;SDS011;4953;48.952;9.442;2022-09-09T16:21:12;2.30;;;1.00;;
9827;SDS011;4953;48.952;9.442;2022-09-09T16:23:40;2.50;;;1.00;;
9827;SDS011;4953;48.952;9.442;2022-09-09T16:26:09;2.20;;;1.00;;
9827;SDS011;4953;48.952;9.442;2022-09-09T16:28:37;2.13;;;0.97;;
9827;SDS011;4953;48.952;9.442;2022-09-09T16:31:05;1.83;;;0.83;;
9827;SDS011;4953;48.952;9.442;2022-09-09T16:33:32;2.40;;;0.77;;
9827;SDS011;4953;48.952;9.442;2022-09-09T16:36:05;2.37;;;0.80;;
9827;SDS011;4953;48.952;9.442;2022-09-09T16:38:33;2.83;;;1.17;;
9827;SDS011;4953;48.952;9.442;2022-09-09T16:41:00;1.93;;;0.90;;
9827;SDS011;4953;48.952;9.442;2022-09-09T16:43:27;6.43;;;1.20;;
9827;SDS011;4953;48.952;9.442;2022-09-09T16:45:54;4.87;;;1.13;;
9827;SDS011;4953;48.952;9.442;2022-09-09T16:48:21;7.17;;;1.10;;
9827;SDS011;4953;48.952;9.442;2022-09-09T16:50:48;5.17;;;1.10;;
9827;SDS011;4953;48.952;9.442;2022-09-09T16:53:16;3.53;;;1.00;;
9827;SDS011;4953;48.952;9.442;2022-09-09T16:55:43;1.83;;;1.10;;
9827;SDS011;4953;48.952;9.442;2022-09-09T16:58:10;1.83;;;0.77;;
9827;SDS011;4953;48.952;9.442;2022-09-09T17:00:37;2.50;;;1.00;;
9827;SDS011;4953;48.952;9.442;2022-09-09T17:03:04;1.70;;;0.80;;
9827;SDS011;4953;48.952;9.442;2022-09-09T17:05:30;2.87;;;0.70;;
9827;SDS011;4953;48.952;9.442;2022-09-09T17:07:58;1.17;;;0.80;;
9827;SDS011;4953;48.952;9.442;2022-09-09T17:10:26;3.87;;;0.80;;
9827;SDS011;4953;48.952;9.442;2022-09-09T17:12:53;1.13;;;0.60;;
9827;SDS011;4953;48.952;9.442;2022-09-09T17:15:20;1.70;;;0.70;;
9827;SDS011;4953;48.952;9.442;2022-09-09T17:17:48;1.70;;;1.10;;
9827;SDS011;4953;48.952;9.442;2022-09-09T17:20:14;0.97;;;0.63;;
9827;SDS011;4953;48.952;9.442;2022-09-09T17:22:42;5.20;;;1.17;;
9827;SDS011;4953;48.952;9.442;2022-09-09T17:25:08;2.23;;;0.83;;
9827;SDS011;4953;48.952;9.442;2022-09-09T17:27:37;1.83;;;0.80;;
9827;SDS011;4953;48.952;9.442;2022-09-09T17:30:04;1.13;;;0.70;;
9827;SDS011;4953;48.952;9.442;2022-09-09T17:32:31;1.57;;;0.90;;
9827;SDS011;4953;48.952;9.442;2022-09-09T17:35:00;4.60;;;0.87;;
9827;SDS011;4953;48.952;9.442;2022-09-09T17:37:27;3.10;;;1.40;;
9827;SDS011;4953;48.952;9.442;2022-09-09T17:39:55;1.67;;;0.87;;
9827;SDS011;4953;48.952;9.442;2022-09-09T17:42:22;4.43;;;1.50;;
9827;SDS011;4953;48.952;9.442;2022-09-09T17:44:51;1.93;;;0.90;;
9827;SDS011;4953;48.952;9.442;2022-09-09T17:47:18;3.17;;;1.00;;
9827;SDS011;4953;48.952;9.442;2022-09-09T17:49:45;1.43;;;0.80;;
9827;SDS011;4953;48.952;9.442;2022-09-09T17:52:11;1.87;;;0.90;;
9827;SDS011;4953;48.952;9.442;2022-09-09T17:54:40;2.97;;;1.00;;
9827;SDS011;4953;48.952;9.442;2022-09-09T17:57:07;1.40;;;0.80;;
9827;SDS011;4953;48.952;9.442;2022-09-09T17:59:34;2.97;;;0.80;;
9827;SDS011;4953;48.952;9.442;2022-09-09T18:02:03;1.90;;;0.90;;
9827;SDS011;4953;48.952;9.442;2022-09-09T18:04:33;1.53;;;1.00;;
9827;SDS011;4953;48.952;9.442;2022-09-09T18:07:01;2.00;;;1.00;;
9827;SDS011;4953;48.952;9.442;2022-09-09T18:09:28;1.27;;;0.97;;
9827;SDS011;4953;48.952;9.442;2022-09-09T18:11:55;2.07;;;0.80;;
9827;SDS011;4953;48.952;9.442;2022-09-09T18:14:24;1.43;;;0.90;;
9827;SDS011;4953;48.952;9.442;2022-09-09T18:16:51;2.70;;;1.10;;
9827;SDS011;4953;48.952;9.442;2022-09-09T18:19:21;1.13;;;1.00;;
9827;SDS011;4953;48.952;9.442;2022-09-09T18:21:49;1.90;;;0.90;;
9827;SDS011;4953;48.952;9.442;2022-09-09T18:24:18;2.00;;;1.10;;
9827;SDS011;4953;48.952;9.442;2022-09-09T18:26:49;1.37;;;1.20;;
9827;SDS011;4953;48.952;9.442;2022-09-09T18:29:17;2.77;;;1.23;;
9827;SDS011;4953;48.952;9.442;2022-09-09T18:31:45;2.73;;;0.90;;
9827;SDS011;4953;48.952;9.442;2022-09-09T18:34:13;2.30;;;1.23;;
9827;SDS011;4953;48.952;9.442;2022-09-09T18:36:44;2.83;;;1.20;;
9827;SDS011;4953;48.952;9.442;2022-09-09T18:39:12;3.13;;;1.30;;
9827;SDS011;4953;48.952;9.442;2022-09-09T18:41:42;2.53;;;1.07;;
9827;SDS011;4953;48.952;9.442;2022-09-09T18:44:11;2.20;;;1.13;;
9827;SDS011;4953;48.952;9.442;2022-09-09T18:46:40;1.43;;;0.90;;
9827;SDS011;4953;48.952;9.442;2022-09-09T18:49:08;1.83;;;0.90;;
9827;SDS011;4953;48.952;9.442;2022-09-09T18:51:35;1.77;;;0.80;;
9827;SDS011;4953;48.952;9.442;2022-09-09T18:54:06;4.10;;;1.60;;
9827;SDS011;4953;48.952;9.442;2022-09-09T18:56:39;5.00;;;2.30;;
9827;SDS011;4953;48.952;9.442;2022-09-09T18:59:09;4.43;;;2.83;;
9827;SDS011;4953;48.952;9.442;2022-09-09T19:01:37;4.47;;;3.10;;
9827;SDS011;4953;48.952;9.442;2022-09-09T19:04:07;5.27;;;2.87;;
9827;SDS011;4953;48.952;9.442;2022-09-09T19:06:36;4.80;;;3.03;;
9827;SDS011;4953;48.952;9.442;2022-09-09T19:09:09;7.60;;;3.20;;
9827;SDS011;4953;48.952;9.442;2022-09-09T19:11:36;4.40;;;2.97;;
9827;SDS011;4953;48.952;9.442;2022-09-09T19:14:07;5.73;;;2.00;;
9827;SDS011;4953;48.952;9.442;2022-09-09T19:16:36;2.47;;;1.40;;
9827;SDS011;4953;48.952;9.442;2022-09-09T19:19:05;4.53;;;1.30;;
9827;SDS011;4953;48.952;9.442;2022-09-09T19:21:35;6.93;;;1.40;;
9827;SDS011;4953;48.952;9.442;2022-09-09T19:24:03;5.13;;;1.50;;
9827;SDS011;4953;48.952;9.442;2022-09-09T19:26:33;2.60;;;1.37;;
9827;SDS011;4953;48.952;9.442;2022-09-09T19:29:04;2.90;;;1.20;;
9827;SDS011;4953;48.952;9.442;2022-09-09T19:31:31;5.00;;;1.50;;
9827;SDS011;4953;48.952;9.442;2022-09-09T19:33:59;2.33;;;1.37;;